Time;durP1;ratioP1;P1;durP2;ratioP2;P2;SDS_P1;SDS_P2;PMS_P1;PMS_P2;Temp;Humidity;BMP_temperature;BMP_pressure;BME280_temperature;BME280_humidity;BME280_pressure;Samples;Min_cycle;Max_cycle;Signal;HPM_P1;HPM_P2
2023/04/26 00:02:20;;;;;;;9.97;3.43;;;3.80;99.90;;;;;;4937103;29;20070;-85
2023/04/26 00:04:46;;;;;;;10.67;3.07;;;3.30;99.90;;;;;;4954689;28;20078;-86
2023/04/26 00:07:19;;;;;;;16.50;3.43;;;2.40;99.90;;;;;;4937632;29;20488;-85
2023/04/26 00:09:47;;;;;;;12.17;2.90;;;2.70;99.90;;;;;;4937663;29;20043;-86
2023/04/26 00:12:16;;;;;;;14.63;3.30;;;2.30;99.90;;;;;;4989611;23;20561;-85
2023/04/26 00:15:01;;;;;;;13.27;3.00;;;2.60;99.90;;;;;;4972789;28;20050;-85
2023/04/26 00:17:49;;;;;;;9.27;3.20;;;3.30;99.90;;;;;;4973862;28;20427;-85
2023/04/26 00:20:18;;;;;;;11.43;3.33;;;2.60;99.90;;;;;;4984643;23;20047;-85
2023/04/26 00:27:18;;;;;;;13.90;3.50;;;3.40;99.90;;;;;;4933607;29;20059;-85
2023/04/26 00:29:57;;;;;;;11.67;3.10;;;1.80;99.90;;;;;;4935854;28;20043;-85
2023/04/26 00:32:23;;;;;;;13.07;3.93;;;2.50;99.90;;;;;;4955420;29;20043;-85
2023/04/26 00:34:48;;;;;;;12.47;3.67;;;2.00;99.90;;;;;;4964007;28;20089;-85
2023/04/26 00:37:20;;;;;;;15.97;3.23;;;2.10;99.90;;;;;;4938539;29;20078;-85
2023/04/26 00:39:49;;;;;;;12.10;3.40;;;2.00;99.90;;;;;;4956935;28;20186;-85
2023/04/26 00:42:21;;;;;;;10.13;3.00;;;2.90;99.90;;;;;;4937825;29;20055;-85
2023/04/26 00:45:11;;;;;;;13.30;3.47;;;2.10;99.90;;;;;;4954423;28;20095;-85
2023/04/26 00:47:40;;;;;;;11.50;3.53;;;2.40;99.90;;;;;;4937758;29;20051;-85
2023/04/26 00:50:11;;;;;;;15.03;4.00;;;2.30;99.90;;;;;;4936876;29;20070;-84
2023/04/26 00:52:44;;;;;;;12.30;3.43;;;2.20;99.90;;;;;;4937838;29;20216;-85
2023/04/26 00:55:15;;;;;;;11.03;3.30;;;2.40;99.90;;;;;;4937849;29;20130;-85
2023/04/26 00:57:44;;;;;;;11.97;3.50;;;2.90;99.90;;;;;;4936954;29;20404;-85
2023/04/26 01:00:20;;;;;;;14.50;3.63;;;2.30;99.90;;;;;;4937092;29;20035;-85
2023/04/26 01:02:46;;;;;;;13.33;3.60;;;2.20;99.90;;;;;;4954859;28;20451;-85
2023/04/26 01:05:18;;;;;;;13.77;4.70;;;2.80;99.90;;;;;;4937341;29;20055;-85
2023/04/26 01:08:05;;;;;;;11.07;3.43;;;2.50;99.90;;;;;;4959054;28;20027;-85
2023/04/26 01:10:48;;;;;;;12.67;3.43;;;2.60;99.90;;;;;;4956006;29;20491;-86
2023/04/26 01:13:16;;;;;;;11.97;3.53;;;2.10;99.90;;;;;;4937309;29;20055;-86
2023/04/26 01:15:48;;;;;;;10.10;3.03;;;3.60;99.90;;;;;;4937465;29;20142;-85
2023/04/26 01:18:14;;;;;;;13.23;4.87;;;2.40;99.90;;;;;;4936194;29;20043;-86
2023/04/26 01:20:40;;;;;;;10.23;3.80;;;3.40;99.90;;;;;;4937680;29;20452;-86
2023/04/26 01:26:45;;;;;;;12.67;3.30;;;2.40;99.90;;;;;;4952847;29;20055;-85
2023/04/26 01:29:26;;;;;;;11.60;2.90;;;3.10;99.90;;;;;;4954646;29;20047;-86
2023/04/26 01:32:38;;;;;;;10.43;3.30;;;2.20;99.90;;;;;;4977801;28;20074;-85
2023/04/26 01:35:20;;;;;;;10.43;3.40;;;3.10;99.90;;;;;;4959765;28;20067;-86
2023/04/26 01:38:18;;;;;;;11.17;3.70;;;3.40;99.90;;;;;;4958479;29;20047;-85
2023/04/26 01:40:47;;;;;;;10.70;3.40;;;2.90;99.90;;;;;;4955783;29;20087;-86
2023/04/26 01:43:21;;;;;;;11.67;3.33;;;3.70;99.90;;;;;;4957786;29;20074;-85
2023/04/26 01:46:01;;;;;;;13.50;3.33;;;3.20;99.90;;;;;;4958651;29;20055;-85
2023/04/26 01:48:27;;;;;;;11.83;2.93;;;2.80;99.90;;;;;;4956569;29;20039;-86
2023/04/26 01:51:15;;;;;;;11.13;3.10;;;2.40;99.90;;;;;;4957193;29;20085;-85
2023/04/26 01:53:46;;;;;;;10.63;3.70;;;2.50;99.90;;;;;;4957692;29;20452;-85
2023/04/26 01:59:54;;;;;;;10.57;2.80;;;2.40;99.90;;;;;;4957686;29;20407;-86
2023/04/26 02:02:20;;;;;;;10.53;3.07;;;3.00;99.90;;;;;;4959437;29;20133;-85
2023/04/26 02:04:52;;;;;;;12.23;3.23;;;3.50;99.90;;;;;;4959863;29;20052;-86
2023/04/26 02:07:29;;;;;;;11.70;3.30;;;2.00;99.90;;;;;;4955599;29;20075;-85
2023/04/26 02:09:55;;;;;;;11.83;3.40;;;3.00;99.90;;;;;;4959398;28;20126;-85
2023/04/26 02:12:28;;;;;;;10.97;3.10;;;2.20;99.90;;;;;;4958041;29;20071;-86
2023/04/26 02:15:20;;;;;;;12.97;3.30;;;2.00;99.90;;;;;;4955696;29;20142;-86
2023/04/26 02:17:46;;;;;;;10.60;3.53;;;2.80;99.90;;;;;;4957692;29;20047;-85
2023/04/26 02:20:11;;;;;;;14.57;3.30;;;2.10;99.90;;;;;;4957774;29;20059;-85
2023/04/26 02:22:38;;;;;;;12.03;3.43;;;2.10;99.90;;;;;;4955368;29;20063;-85
2023/04/26 02:25:23;;;;;;;11.43;3.00;;;2.10;99.90;;;;;;5015190;23;20055;-85
2023/04/26 02:27:49;;;;;;;11.83;3.30;;;1.40;99.90;;;;;;4996350;28;20049;-85
2023/04/26 02:30:21;;;;;;;13.07;3.63;;;1.90;99.90;;;;;;4994652;28;20401;-85
2023/04/26 02:32:56;;;;;;;11.27;3.10;;;2.90;99.90;;;;;;4996045;28;20070;-86
2023/04/26 02:35:22;;;;;;;10.90;3.37;;;1.80;99.90;;;;;;4977487;28;20042;-85
2023/04/26 02:37:48;;;;;;;10.50;3.33;;;1.80;99.90;;;;;;4978122;28;20050;-85
2023/04/26 02:40:22;;;;;;;11.10;3.33;;;1.90;99.90;;;;;;4995371;28;20113;-85
2023/04/26 02:42:57;;;;;;;12.43;3.80;;;2.30;99.90;;;;;;4996475;28;20077;-85
2023/04/26 02:45:23;;;;;;;9.90;3.80;;;1.90;99.90;;;;;;4977889;28;20125;-85
2023/04/26 02:47:48;;;;;;;12.70;3.70;;;2.10;99.90;;;;;;4995552;28;20085;-85
2023/04/26 02:50:17;;;;;;;13.73;3.37;;;2.20;99.90;;;;;;4994691;28;20100;-85
2023/04/26 02:53:02;;;;;;;11.00;3.40;;;2.60;99.90;;;;;;4997374;28;20042;-85
2023/04/26 02:55:50;;;;;;;12.53;3.73;;;2.60;99.90;;;;;;4995161;28;20064;-86
2023/04/26 02:58:25;;;;;;;10.77;3.40;;;2.40;99.90;;;;;;4977180;28;20050;-85
2023/04/26 03:00:57;;;;;;;10.93;3.43;;;2.30;99.90;;;;;;4995313;28;20422;-85
2023/04/26 03:03:24;;;;;;;11.00;3.57;;;2.70;99.90;;;;;;4977131;28;20566;-85
2023/04/26 03:05:50;;;;;;;11.07;3.03;;;3.60;99.90;;;;;;4978017;28;20479;-86
2023/04/26 03:08:15;;;;;;;11.43;3.40;;;3.50;99.90;;;;;;4993799;28;20049;-86
2023/04/26 03:10:44;;;;;;;12.93;3.43;;;2.50;99.90;;;;;;4994700;28;20046;-86
2023/04/26 03:13:27;;;;;;;13.67;3.10;;;2.50;99.90;;;;;;4977807;28;20200;-85
2023/04/26 03:15:53;;;;;;;10.40;3.60;;;2.90;99.90;;;;;;4977558;28;20042;-85
2023/04/26 03:18:22;;;;;;;9.53;3.13;;;3.90;99.90;;;;;;4976211;28;20034;-85
2023/04/26 03:20:53;;;;;;;12.30;3.40;;;3.60;99.90;;;;;;4995063;28;20042;-85
2023/04/26 03:23:24;;;;;;;13.23;3.60;;;1.70;99.90;;;;;;4977116;28;20050;-85
2023/04/26 03:25:53;;;;;;;13.90;3.73;;;1.90;99.90;;;;;;4975857;28;20076;-85
2023/04/26 03:28:26;;;;;;;12.33;3.80;;;2.70;99.90;;;;;;4979483;28;20046;-85
2023/04/26 03:30:57;;;;;;;10.63;3.57;;;1.00;99.90;;;;;;4994725;28;20082;-87
2023/04/26 03:33:32;;;;;;;12.63;3.67;;;2.40;99.90;;;;;;4977355;28;20102;-86
2023/04/26 03:35:58;;;;;;;11.83;3.70;;;2.70;99.90;;;;;;4996184;28;20445;-86
2023/04/26 03:38:29;;;;;;;11.43;3.90;;;2.90;99.90;;;;;;4977096;28;20046;-85
2023/04/26 03:41:20;;;;;;;11.90;4.33;;;2.90;99.90;;;;;;4977621;28;20140;-85
2023/04/26 03:43:48;;;;;;;12.63;3.70;;;1.30;99.90;;;;;;4978340;28;20038;-85
2023/04/26 03:46:20;;;;;;;13.40;3.90;;;1.20;99.90;;;;;;4976168;28;20046;-85
2023/04/26 03:49:22;;;;;;;13.67;4.03;;;1.70;99.90;;;;;;4977052;28;20046;-85
2023/04/26 03:51:50;;;;;;;13.93;3.83;;;2.20;99.90;;;;;;4977259;28;20096;-85
2023/04/26 03:54:19;;;;;;;11.07;3.60;;;2.00;99.90;;;;;;4976221;28;20490;-85
2023/04/26 03:56:53;;;;;;;12.77;3.80;;;2.50;99.90;;;;;;4994594;28;20042;-85
2023/04/26 03:59:21;;;;;;;10.40;3.83;;;2.10;99.90;;;;;;4994039;28;20046;-85
2023/04/26 04:01:50;;;;;;;14.97;4.10;;;1.30;99.90;;;;;;4992845;28;20573;-86
2023/04/26 04:04:21;;;;;;;12.93;3.40;;;1.30;99.90;;;;;;4976968;28;20133;-85
2023/04/26 04:06:50;;;;;;;12.80;3.93;;;1.50;99.90;;;;;;4993425;28;20102;-85
2023/04/26 04:09:16;;;;;;;11.30;3.97;;;1.10;99.90;;;;;;4994156;28;20045;-85
2023/04/26 04:15:37;;;;;;;12.53;4.03;;;1.30;99.90;;;;;;4993915;28;20088;-85
2023/04/26 04:18:05;;;;;;;11.37;3.93;;;1.30;99.90;;;;;;4977200;28;20107;-85
2023/04/26 04:20:49;;;;;;;12.50;3.83;;;1.10;99.90;;;;;;4976631;28;20035;-85
2023/04/26 04:23:30;;;;;;;15.35;4.35;;;1.70;99.90;;;;;;5170396;23;20069;-85
2023/04/26 04:29:07;;;;;;;14.67;4.50;;;1.60;99.90;;;;;;5032028;28;20041;-86
2023/04/26 04:32:04;;;;;;;11.23;4.13;;;2.20;99.90;;;;;;5007707;28;20413;-85
2023/04/26 04:34:36;;;;;;;13.30;4.30;;;1.40;99.90;;;;;;4996852;28;20050;-85
2023/04/26 04:37:17;;;;;;;11.83;5.07;;;2.00;99.90;;;;;;5013653;28;20050;-85
2023/04/26 04:39:48;;;;;;;13.17;4.00;;;0.10;99.90;;;;;;4997597;28;20129;-85
2023/04/26 04:42:29;;;;;;;11.93;3.87;;;2.80;99.90;;;;;;5012453;28;20041;-85
2023/04/26 04:44:58;;;;;;;12.73;3.83;;;1.10;99.90;;;;;;5013362;28;20072;-84
2023/04/26 04:47:24;;;;;;;14.60;4.17;;;3.90;99.90;;;;;;4995462;28;20040;-85
2023/04/26 04:50:05;;;;;;;12.47;4.20;;;1.20;99.90;;;;;;4995099;28;20046;-85
2023/04/26 04:52:32;;;;;;;13.97;4.23;;;1.40;99.90;;;;;;5013094;28;20061;-85
2023/04/26 04:55:01;;;;;;;10.50;3.80;;;1.20;99.90;;;;;;4995088;28;20061;-85
2023/04/26 04:57:30;;;;;;;13.73;4.13;;;1.10;99.90;;;;;;4995173;28;20050;-85
2023/04/26 05:00:17;;;;;;;10.77;3.70;;;2.30;99.90;;;;;;4995401;28;20121;-85
2023/04/26 05:02:55;;;;;;;12.83;4.33;;;1.50;99.90;;;;;;4996757;28;20087;-85
2023/04/26 05:05:39;;;;;;;13.10;4.10;;;2.60;99.90;;;;;;4998432;28;20057;-86
2023/04/26 05:08:10;;;;;;;;;;;2.80;99.90;;;;;;5014133;28;20053;-87
2023/04/26 05:10:43;;;;;;;12.57;3.97;;;1.80;99.90;;;;;;4998746;28;20285;-81
2023/04/26 05:13:31;;;;;;;11.90;4.00;;;2.10;99.90;;;;;;5007271;28;20050;-81
2023/04/26 05:15:57;;;;;;;12.90;4.37;;;1.60;99.90;;;;;;5016818;28;20042;-83
2023/04/26 05:18:40;;;;;;;15.00;4.40;;;1.70;99.90;;;;;;4998123;28;20054;-81
2023/04/26 05:21:45;;;;;;;12.68;3.85;;;1.90;99.90;;;;;;4998649;28;20073;-81
2023/04/26 05:25:03;;;;;;;11.03;4.17;;;2.00;99.90;;;;;;4996622;28;20073;-81
2023/04/26 05:27:54;;;;;;;10.43;3.67;;;1.10;99.90;;;;;;4998756;28;20521;-81
2023/04/26 05:30:41;;;;;;;14.73;4.63;;;2.60;99.90;;;;;;4998467;28;20433;-81
2023/04/26 05:33:06;;;;;;;11.27;3.80;;;2.20;99.90;;;;;;4997889;28;20077;-82
2023/04/26 05:35:52;;;;;;;13.10;3.83;;;2.00;99.90;;;;;;5016583;28;20092;-82
2023/04/26 05:38:34;;;;;;;12.63;4.07;;;2.00;99.90;;;;;;5015339;28;20121;-82
2023/04/26 05:41:18;;;;;;;15.20;4.70;;;2.20;99.90;;;;;;5016302;28;20046;-82
2023/04/26 05:43:58;;;;;;;10.73;3.80;;;2.70;99.90;;;;;;4998739;28;20508;-81
2023/04/26 05:46:24;;;;;;;11.53;3.90;;;2.80;99.90;;;;;;4997803;28;20053;-81
2023/04/26 05:48:56;;;;;;;11.43;3.93;;;3.00;99.90;;;;;;5015447;28;20152;-81
2023/04/26 05:51:27;;;;;;;11.10;3.80;;;3.00;99.90;;;;;;5014985;28;20048;-81
2023/04/26 05:53:56;;;;;;;11.70;3.83;;;4.90;99.90;;;;;;4997045;28;20131;-81
2023/04/26 05:56:25;;;;;;;13.90;4.27;;;3.20;99.90;;;;;;5015886;28;20058;-81
2023/04/26 05:58:53;;;;;;;10.23;3.67;;;3.20;99.90;;;;;;4997720;28;20045;-82
2023/04/26 06:01:18;;;;;;;9.57;3.60;;;3.50;99.90;;;;;;4996514;28;20073;-81
2023/04/26 06:03:45;;;;;;;11.17;3.90;;;4.90;99.90;;;;;;5015514;28;20527;-80
2023/04/26 06:06:11;;;;;;;11.80;3.87;;;3.70;99.90;;;;;;4996840;28;20494;-81
2023/04/26 06:08:37;;;;;;;11.00;3.90;;;3.70;99.90;;;;;;4997949;28;20394;-81
2023/04/26 06:11:02;;;;;;;13.03;3.97;;;3.80;99.90;;;;;;5015034;28;20145;-82
2023/04/26 06:13:28;;;;;;;10.37;4.13;;;3.80;99.90;;;;;;5014839;28;20526;-82
2023/04/26 06:15:54;;;;;;;10.53;3.70;;;4.70;99.90;;;;;;5015367;28;20444;-82
2023/04/26 06:18:20;;;;;;;11.97;3.60;;;3.90;99.90;;;;;;4998151;28;20069;-82
2023/04/26 06:20:46;;;;;;;12.93;3.70;;;3.90;99.90;;;;;;4996423;28;20489;-82
2023/04/26 06:23:11;;;;;;;11.80;3.80;;;3.90;99.90;;;;;;4996840;28;20129;-82
2023/04/26 06:25:42;;;;;;;17.50;6.57;;;4.40;99.90;;;;;;5015050;28;20459;-82
2023/04/26 06:28:08;;;;;;;12.47;4.37;;;3.90;99.90;;;;;;4996682;28;20046;-82
2023/04/26 06:30:34;;;;;;;61.70;34.37;;;3.90;99.90;;;;;;5005849;28;20041;-83
2023/04/26 06:32:59;;;;;;;38.27;21.17;;;3.90;99.90;;;;;;4988152;28;20042;-82
2023/04/26 06:35:25;;;;;;;19.30;10.13;;;4.00;99.90;;;;;;4996302;28;20490;-86
2023/04/26 06:38:03;;;;;;;36.23;22.97;;;5.10;99.90;;;;;;5000759;28;20088;-82
2023/04/26 06:40:29;;;;;;;58.83;42.47;;;5.40;99.90;;;;;;4988338;28;20096;-82
2023/04/26 06:43:01;;;;;;;13.67;5.23;;;4.10;99.90;;;;;;5013607;28;20046;-83
2023/04/26 06:45:34;;;;;;;13.80;5.37;;;4.20;99.90;;;;;;5000633;28;20080;-82
2023/04/26 06:48:04;;;;;;;18.33;9.98;;;4.40;99.90;;;;;;5015353;28;20049;-82
2023/04/26 06:50:29;;;;;;;18.40;9.90;;;5.80;99.90;;;;;;5013929;28;20080;-82
2023/04/26 06:52:57;;;;;;;14.20;5.43;;;5.30;99.90;;;;;;4996708;28;20455;-82
2023/04/26 06:55:30;;;;;;;33.03;26.17;;;4.70;99.90;;;;;;4995693;28;20124;-81
2023/04/26 06:57:56;;;;;;;10.88;4.10;;;4.90;99.90;;;;;;5014173;28;20099;-81
2023/04/26 07:00:31;;;;;;;10.53;4.50;;;4.50;99.90;;;;;;5014180;28;20045;-81
2023/04/26 07:03:06;;;;;;;12.27;3.70;;;5.10;99.90;;;;;;4995892;28;20099;-81
2023/04/26 07:05:41;;;;;;;12.03;4.20;;;6.00;99.90;;;;;;4996153;28;20096;-81
2023/04/26 07:08:06;;;;;;;9.40;3.43;;;5.50;99.90;;;;;;5013910;28;20104;-80
2023/04/26 07:10:47;;;;;;;12.50;5.83;;;5.90;99.90;;;;;;4995080;28;20502;-81
2023/04/26 07:13:28;;;;;;;13.13;4.90;;;6.30;99.90;;;;;;4995821;28;20058;-81
2023/04/26 07:16:00;;;;;;;10.60;2.93;;;6.50;99.90;;;;;;4995087;28;20490;-81
2023/04/26 07:27:06;;;;;;;23.93;14.57;;;5.90;99.90;;;;;;4974756;28;20061;-81
2023/04/26 07:30:23;;;;;;;14.43;4.80;;;6.60;99.90;;;;;;4981055;28;20058;-81
2023/04/26 07:32:48;;;;;;;18.13;7.97;;;6.40;99.90;;;;;;4974936;28;20454;-81
2023/04/26 07:35:14;;;;;;;15.82;7.47;;;6.80;99.90;;;;;;4973598;28;20051;-82
2023/04/26 07:37:42;;;;;;;10.15;4.68;;;6.90;99.90;;;;;;4972951;28;20065;-80
2023/04/26 07:40:09;;;;;;;9.88;2.88;;;7.00;99.90;;;;;;4972737;28;20061;-81
2023/04/26 07:42:35;;;;;;;8.80;2.40;;;7.10;99.90;;;;;;4974539;28;20039;-80
2023/04/26 07:45:00;;;;;;;9.38;2.30;;;7.30;99.90;;;;;;4972782;28;20050;-81
2023/04/26 07:47:26;;;;;;;10.23;2.85;;;7.40;99.90;;;;;;4973733;28;20039;-81
2023/04/26 07:49:53;;;;;;;8.38;3.17;;;7.30;99.90;;;;;;4973879;28;20039;-80
2023/04/26 07:52:19;;;;;;;10.73;2.70;;;7.40;99.90;;;;;;4971807;28;20049;-80
2023/04/26 07:54:45;;;;;;;12.75;3.42;;;7.60;99.90;;;;;;4974039;28;20046;-81
2023/04/26 07:57:11;;;;;;;9.35;2.70;;;7.70;99.90;;;;;;4972440;28;20050;-84
2023/04/26 07:59:37;;;;;;;9.38;2.60;;;7.60;99.90;;;;;;4972555;28;20046;-86
2023/04/26 08:02:02;;;;;;;8.77;2.72;;;8.50;99.90;;;;;;4973734;28;20069;-82
2023/04/26 08:04:32;;;;;;;9.57;2.63;;;7.60;99.90;;;;;;4956802;28;20051;-80
2023/04/26 08:07:00;;;;;;;7.85;2.22;;;7.80;99.90;;;;;;4973606;28;20050;-81
2023/04/26 08:09:30;;;;;;;11.32;2.63;;;8.30;99.90;;;;;;4962260;28;20474;-80
2023/04/26 08:11:56;;;;;;;9.10;2.45;;;7.60;99.90;;;;;;4975636;28;20057;-80
2023/04/26 08:14:21;;;;;;;9.23;2.60;;;7.60;99.90;;;;;;4972701;28;20093;-80
2023/04/26 08:16:47;;;;;;;9.88;2.92;;;7.70;99.90;;;;;;4974631;28;20038;-79
2023/04/26 08:19:12;;;;;;;7.53;2.10;;;7.80;99.90;;;;;;4975110;28;20113;-80
2023/04/26 08:21:38;;;;;;;8.82;2.38;;;7.80;99.90;;;;;;4972943;28;20399;-80
2023/04/26 08:24:05;;;;;;;8.32;2.55;;;7.90;99.90;;;;;;4976693;28;20056;-80
2023/04/26 08:26:30;;;;;;;8.23;2.35;;;8.10;99.90;;;;;;4993636;28;20059;-81
2023/04/26 08:28:59;;;;;;;8.52;2.42;;;8.30;99.90;;;;;;4992689;28;20134;-80
2023/04/26 08:31:26;;;;;;;9.90;2.78;;;8.40;99.90;;;;;;4976144;28;20125;-80
2023/04/26 08:33:51;;;;;;;7.70;2.40;;;8.60;99.90;;;;;;4992865;28;20042;-81
2023/04/26 08:36:17;;;;;;;8.32;2.65;;;8.70;99.90;;;;;;4991860;28;20108;-81
2023/04/26 08:38:43;;;;;;;8.90;2.40;;;9.10;99.90;;;;;;4991683;28;20042;-79
2023/04/26 08:41:13;;;;;;;9.68;2.08;;;8.70;99.90;;;;;;4991423;28;20494;-80
2023/04/26 08:43:39;;;;;;;8.70;2.38;;;8.50;99.90;;;;;;4991638;28;20509;-80
2023/04/26 08:46:09;;;;;;;8.70;2.53;;;8.50;99.90;;;;;;4975162;28;20041;-79
2023/04/26 08:48:36;;;;;;;9.27;2.65;;;8.60;99.90;;;;;;4992389;28;20054;-80
2023/04/26 08:51:02;;;;;;;8.35;2.45;;;8.70;99.90;;;;;;4992509;28;20117;-80
2023/04/26 08:53:30;;;;;;;7.93;2.42;;;8.80;99.90;;;;;;4992792;28;20131;-80
2023/04/26 08:55:56;;;;;;;11.57;2.50;;;8.80;99.90;;;;;;4992239;28;20058;-80
2023/04/26 08:58:22;;;;;;;12.05;2.90;;;8.70;99.90;;;;;;4991794;28;20053;-80
2023/04/26 09:00:49;;;;;;;9.05;2.70;;;9.60;99.90;;;;;;4975635;28;20047;-80
2023/04/26 09:03:19;;;;;;;9.95;2.50;;;8.70;99.90;;;;;;4974909;28;20506;-80
2023/04/26 09:05:45;;;;;;;8.80;2.50;;;9.20;99.90;;;;;;4993140;28;20055;-80
2023/04/26 09:08:18;;;;;;;8.40;2.47;;;8.70;99.90;;;;;;4993277;28;20049;-80
2023/04/26 09:10:46;;;;;;;9.85;2.72;;;8.80;99.90;;;;;;4992271;28;20065;-80
2023/04/26 09:13:28;;;;;;;9.60;2.28;;;10.00;99.90;;;;;;4991132;28;20120;-80
2023/04/26 09:16:02;;;;;;;9.07;2.53;;;10.50;99.90;;;;;;4992672;28;20506;-80
2023/04/26 09:18:30;;;;;;;6.93;2.50;;;8.70;99.90;;;;;;4992789;28;20039;-80
2023/04/26 09:21:12;;;;;;;23.20;10.65;;;9.00;99.90;;;;;;4991408;28;20132;-80
2023/04/26 09:24:11;;;;;;;9.95;4.57;;;8.90;99.90;;;;;;4992663;28;20042;-81
2023/04/26 09:26:43;;;;;;;11.27;2.25;;;9.20;99.90;;;;;;5012916;28;20180;-80
2023/04/26 09:29:19;;;;;;;8.75;2.58;;;9.00;99.90;;;;;;4994794;28;20053;-80
2023/04/26 09:31:51;;;;;;;7.78;2.33;;;10.80;99.90;;;;;;4994276;28;20042;-80
2023/04/26 09:34:23;;;;;;;9.68;2.70;;;10.40;99.90;;;;;;4994966;28;20188;-81
2023/04/26 09:37:11;;;;;;;10.77;5.10;;;9.30;99.90;;;;;;4990977;28;20136;-81
2023/04/26 09:39:52;;;;;;;12.73;6.93;;;9.10;99.90;;;;;;4995123;28;20446;-80
2023/04/26 09:42:27;;;;;;;8.05;3.42;;;9.10;99.90;;;;;;4995809;28;20471;-80
2023/04/26 09:45:05;;;;;;;11.05;3.63;;;9.10;99.90;;;;;;4995169;28;20052;-80
2023/04/26 09:47:43;;;;;;;11.65;4.63;;;8.50;99.90;;;;;;4995394;28;20050;-79
2023/04/26 09:50:37;;;;;;;10.82;2.97;;;8.40;99.90;;;;;;5013298;28;20045;-80
2023/04/26 09:53:03;;;;;;;21.63;12.70;;;8.60;99.90;;;;;;4994336;28;20046;-80
2023/04/26 09:55:30;;;;;;;21.63;14.30;;;9.70;99.90;;;;;;5012845;28;20117;-81
2023/04/26 09:57:59;;;;;;;15.57;10.75;;;8.70;99.90;;;;;;4997941;28;20074;-81
2023/04/26 10:00:26;;;;;;;28.73;20.83;;;8.80;99.90;;;;;;4997001;28;20042;-80
2023/04/26 10:02:57;;;;;;;16.52;10.10;;;10.10;99.90;;;;;;5015503;28;20128;-82
2023/04/26 10:05:23;;;;;;;10.85;4.78;;;8.90;99.90;;;;;;4997190;28;20398;-80
2023/04/26 10:07:53;;;;;;;9.75;2.80;;;9.20;99.90;;;;;;5015744;28;20099;-81
2023/04/26 10:10:20;;;;;;;9.07;3.55;;;9.10;99.90;;;;;;5016270;28;20494;-85
2023/04/26 10:12:46;;;;;;;10.85;5.47;;;9.40;99.90;;;;;;5017931;28;20049;-81
2023/04/26 10:15:12;;;;;;;21.00;12.00;;;10.30;99.90;;;;;;4998812;28;20057;-80
2023/04/26 10:17:38;;;;;;;12.32;5.95;;;9.40;99.90;;;;;;5017120;28;20041;-81
2023/04/26 10:20:10;;;;;;;8.70;2.60;;;9.60;99.90;;;;;;5015128;28;20180;-80
2023/04/26 10:25:01;;;;;;;9.05;2.78;;;9.70;99.90;;;;;;4996876;23;20108;-80
2023/04/26 10:27:46;;;;;;;11.27;4.22;;;10.10;99.90;;;;;;4974848;28;20039;-80
2023/04/26 10:30:13;;;;;;;12.07;4.85;;;10.20;99.90;;;;;;4977408;28;20078;-80
2023/04/26 10:32:57;;;;;;;10.35;2.95;;;10.30;99.90;;;;;;4980517;28;20047;-81
2023/04/26 10:35:28;;;;;;;12.43;5.05;;;11.40;99.90;;;;;;4989515;28;20049;-82
2023/04/26 10:38:02;;;;;;;12.20;4.47;;;10.40;99.90;;;;;;4966065;28;20121;-82
2023/04/26 10:40:39;;;;;;;11.75;4.68;;;10.20;99.90;;;;;;4975285;28;20495;-82
2023/04/26 10:43:13;;;;;;;9.50;2.40;;;10.20;99.90;;;;;;4976068;28;20227;-82
2023/04/26 10:45:43;;;;;;;10.07;2.60;;;10.30;99.90;;;;;;4975905;28;20054;-82
2023/04/26 10:48:31;;;;;;;11.30;2.58;;;10.60;99.90;;;;;;4975066;28;20043;-82
2023/04/26 10:51:00;;;;;;;7.38;2.40;;;10.90;99.90;;;;;;4975886;28;20097;-82
2023/04/26 10:53:44;;;;;;;7.43;2.20;;;11.10;99.90;;;;;;4957848;28;20169;-82
2023/04/26 10:56:31;;;;;;;7.45;2.30;;;10.70;99.90;;;;;;4945887;28;20368;-82
2023/04/26 10:59:12;;;;;;;8.30;2.15;;;11.40;99.90;;;;;;4974298;28;20054;-82
2023/04/26 11:01:41;;;;;;;7.53;2.47;;;10.00;99.90;;;;;;4956287;28;20082;-82
2023/04/26 11:04:09;;;;;;;8.77;2.40;;;9.60;99.90;;;;;;4957296;28;20458;-82
2023/04/26 11:06:52;;;;;;;7.00;2.13;;;10.10;99.90;;;;;;4957036;28;20050;-82
2023/04/26 11:09:40;;;;;;;9.95;2.80;;;10.10;99.90;;;;;;4939860;28;20513;-81
2023/04/26 11:12:14;;;;;;;16.65;12.38;;;10.10;99.90;;;;;;4974885;28;20047;-82
2023/04/26 11:14:44;;;;;;;8.55;2.55;;;10.00;99.90;;;;;;4976617;28;20050;-81
2023/04/26 11:17:11;;;;;;;12.75;3.28;;;9.80;99.90;;;;;;4957020;28;20105;-81
2023/04/26 11:19:42;;;;;;;8.32;2.50;;;9.60;99.90;;;;;;4975649;28;20042;-82
2023/04/26 11:22:10;;;;;;;8.32;2.63;;;9.60;99.90;;;;;;4991108;23;20107;-81
2023/04/26 11:24:41;;;;;;;9.88;3.13;;;9.00;99.90;;;;;;4994170;28;20051;-81
2023/04/26 11:27:08;;;;;;;12.05;5.55;;;8.80;99.90;;;;;;4994544;28;20042;-80
2023/04/26 11:29:34;;;;;;;8.30;3.00;;;8.70;99.90;;;;;;4994523;28;20089;-81
2023/04/26 11:31:59;;;;;;;9.68;3.08;;;8.60;99.90;;;;;;4976094;28;20058;-80
2023/04/26 11:34:33;;;;;;;7.85;2.95;;;8.40;99.90;;;;;;4994486;28;20046;-80
2023/04/26 11:37:01;;;;;;;8.77;2.90;;;8.20;99.90;;;;;;4975928;28;20053;-80
2023/04/26 11:39:27;;;;;;;11.23;3.10;;;8.10;99.90;;;;;;4977311;28;20050;-79
2023/04/26 11:42:07;;;;;;;9.55;2.88;;;8.10;99.90;;;;;;4985774;28;20042;-80
2023/04/26 11:44:33;;;;;;;10.10;3.47;;;8.10;99.90;;;;;;4970273;28;20437;-79
2023/04/26 11:47:06;;;;;;;9.90;2.85;;;9.40;99.90;;;;;;4984000;28;20046;-80
2023/04/26 11:49:35;;;;;;;11.20;2.95;;;8.20;99.90;;;;;;4997694;28;20034;-81
2023/04/26 11:52:02;;;;;;;8.10;2.65;;;8.20;99.90;;;;;;4992426;28;20449;-81
2023/04/26 11:54:29;;;;;;;8.50;2.90;;;8.20;99.90;;;;;;4976607;28;20061;-82
2023/04/26 11:56:56;;;;;;;8.45;3.00;;;8.30;99.90;;;;;;4976221;28;20054;-81
2023/04/26 11:59:29;;;;;;;16.95;8.07;;;8.30;99.90;;;;;;4976057;28;20112;-82
2023/04/26 12:01:56;;;;;;;13.60;6.75;;;9.50;99.90;;;;;;4993826;28;20046;-82
2023/04/26 12:04:29;;;;;;;14.52;6.93;;;8.40;99.90;;;;;;4994346;28;20383;-83
2023/04/26 12:06:55;;;;;;;8.05;2.58;;;8.70;99.90;;;;;;4993427;28;20089;-82
2023/04/26 12:09:28;;;;;;;8.95;2.80;;;10.10;99.90;;;;;;5037027;23;20058;-83
2023/04/26 12:11:58;;;;;;;8.23;2.80;;;9.10;99.90;;;;;;4973726;28;20047;-82
2023/04/26 12:14:34;;;;;;;9.88;2.50;;;9.40;99.90;;;;;;4974242;28;20537;-84
2023/04/26 12:17:01;;;;;;;11.63;5.72;;;10.30;99.90;;;;;;4973984;28;20043;-82
2023/04/26 12:19:31;;;;;;;17.30;8.88;;;9.80;99.90;;;;;;4955404;28;20038;-84
2023/04/26 12:21:57;;;;;;;18.30;8.90;;;10.00;99.90;;;;;;4956060;28;20043;-84
2023/04/26 12:24:35;;;;;;;28.00;13.65;;;10.00;99.90;;;;;;4972816;28;20053;-83
2023/04/26 12:27:07;;;;;;;9.45;3.42;;;10.00;99.90;;;;;;4955997;28;20474;-84
2023/04/26 12:29:34;;;;;;;21.23;12.40;;;10.30;99.90;;;;;;4972001;28;20514;-83
2023/04/26 12:32:00;;;;;;;16.45;8.32;;;11.20;99.90;;;;;;4973553;28;20081;-83
2023/04/26 12:34:26;;;;;;;8.90;2.75;;;10.30;99.90;;;;;;4972276;28;20475;-83
2023/04/26 12:36:51;;;;;;;14.05;6.78;;;10.60;99.90;;;;;;4954453;28;20054;-84
2023/04/26 12:39:17;;;;;;;15.60;7.25;;;11.00;99.90;;;;;;4973121;28;20046;-83
2023/04/26 12:41:44;;;;;;;10.32;4.10;;;11.40;99.90;;;;;;4955690;28;20050;-85
2023/04/26 12:44:10;;;;;;;8.85;2.80;;;11.70;99.90;;;;;;4956745;28;20483;-87
2023/04/26 12:46:36;;;;;;;13.45;7.07;;;11.60;99.90;;;;;;4975588;28;20483;-86
2023/04/26 12:49:03;;;;;;;9.88;2.90;;;11.20;99.90;;;;;;4973128;28;20045;-86
2023/04/26 12:51:30;;;;;;;15.65;6.32;;;11.10;99.90;;;;;;4955173;29;20130;-85
2023/04/26 12:53:56;;;;;;;11.00;5.03;;;10.70;99.90;;;;;;4967186;29;20047;-85
2023/04/26 12:56:23;;;;;;;11.95;3.10;;;10.30;99.90;;;;;;4940245;29;20403;-84
2023/04/26 12:58:49;;;;;;;14.50;7.05;;;11.40;99.90;;;;;;4940900;29;20071;-84
2023/04/26 13:01:19;;;;;;;10.82;3.53;;;10.20;99.90;;;;;;4939611;29;20054;-86
2023/04/26 13:03:45;;;;;;;8.52;2.88;;;9.90;99.90;;;;;;4954423;28;20113;-83
2023/04/26 13:06:11;;;;;;;8.85;3.25;;;11.40;99.90;;;;;;4971365;28;20050;-85
2023/04/26 13:09:06;;;;;;;9.27;3.65;;;9.90;99.90;;;;;;4974086;28;20047;-84
2023/04/26 13:11:47;;;;;;;9.00;2.92;;;9.50;99.90;;;;;;4957532;28;20491;-83
2023/04/26 13:14:31;;;;;;;13.30;4.18;;;11.30;99.90;;;;;;4974566;28;20042;-82
2023/04/26 13:17:08;;;;;;;12.07;5.28;;;9.90;99.90;;;;;;4972581;28;20376;-83
2023/04/26 13:19:52;;;;;;;10.68;4.88;;;9.00;99.90;;;;;;4943789;29;20044;-83
2023/04/26 13:22:27;;;;;;;9.73;3.30;;;9.80;99.90;;;;;;4970456;28;20105;-84
2023/04/26 13:28:55;;;;;;;12.43;7.43;;;9.20;99.90;;;;;;4970991;28;20098;-82
2023/04/26 13:31:21;;;;;;;8.85;3.70;;;9.00;99.90;;;;;;4959054;28;20443;-84
2023/04/26 13:33:56;;;;;;;10.65;4.40;;;9.40;99.90;;;;;;4959805;28;20049;-83
2023/04/26 13:36:21;;;;;;;9.10;3.05;;;8.30;99.90;;;;;;4966330;28;20081;-83
2023/04/26 13:38:56;;;;;;;9.80;4.20;;;8.80;99.90;;;;;;4991541;28;20035;-84
2023/04/26 13:41:32;;;;;;;15.02;7.13;;;9.70;99.90;;;;;;4960047;28;20507;-83
2023/04/26 13:43:59;;;;;;;12.00;5.57;;;9.80;99.90;;;;;;4975195;28;20049;-84
2023/04/26 13:46:37;;;;;;;9.70;3.35;;;8.70;99.90;;;;;;4977361;28;20395;-85
2023/04/26 13:49:23;;;;;;;10.90;4.63;;;10.00;99.90;;;;;;4959494;28;20165;-84